Time;durP1;ratioP1;P1;durP2;ratioP2;P2;SDS_P1;SDS_P2;PMS_P1;PMS_P2;Temp;Humidity;BMP_temperature;BMP_pressure;BME280_temperature;BME280_humidity;BME280_pressure;Samples;Min_cycle;Max_cycle;Signal;HPM_P1;HPM_P2
2021/05/13 00:00:10;;;;;;;1.70;0.45;;;25.30;78.70;;;;;;4991793;28;20026;-73
2021/05/13 00:02:38;;;;;;;3.58;0.50;;;25.50;73.70;;;;;;4988458;28;20177;-75
2021/05/13 00:05:05;;;;;;;2.33;0.47;;;25.30;75.00;;;;;;4986139;28;20031;-74
2021/05/13 00:07:33;;;;;;;1.65;0.40;;;25.30;77.80;;;;;;4985630;28;20026;-75
2021/05/13 00:10:00;;;;;;;4.03;0.63;;;25.60;75.30;;;;;;4993608;28;20096;-74
2021/05/13 00:12:40;;;;;;;2.97;1.25;;;26.00;76.40;;;;;;4993071;28;20033;-74
2021/05/13 00:15:21;;;;;;;5.03;0.73;;;26.20;75.40;;;;;;4994243;28;20027;-74
2021/05/13 00:17:53;;;;;;;1.92;0.30;;;25.90;73.30;;;;;;4992495;28;20041;-74
2021/05/13 00:20:32;;;;;;;2.55;0.50;;;26.30;73.30;;;;;;4992428;28;20369;-73
2021/05/13 00:22:59;;;;;;;0.70;0.40;;;26.70;73.20;;;;;;4991131;28;20116;-74
2021/05/13 00:25:28;;;;;;;1.50;0.40;;;26.70;73.10;;;;;;4994177;28;20501;-74
2021/05/13 00:27:56;;;;;;;0.63;0.30;;;26.80;71.10;;;;;;4992373;28;20026;-74
2021/05/13 00:30:25;;;;;;;0.82;0.40;;;26.90;70.10;;;;;;4994453;28;20051;-74
2021/05/13 00:32:53;;;;;;;2.50;0.40;;;27.20;72.80;;;;;;4993160;28;20088;-75
2021/05/13 00:35:21;;;;;;;2.10;0.40;;;27.50;71.40;;;;;;4992764;28;20026;-74
2021/05/13 00:37:49;;;;;;;1.00;0.43;;;27.30;69.50;;;;;;4994119;28;20514;-73
2021/05/13 00:40:19;;;;;;;1.42;0.30;;;26.70;71.30;;;;;;4998060;28;20025;-74
2021/05/13 00:42:46;;;;;;;2.22;0.70;;;26.30;70.00;;;;;;4990151;28;20050;-75
2021/05/13 00:45:16;;;;;;;0.40;0.22;;;26.60;72.40;;;;;;4996255;28;20109;-75
2021/05/13 00:48:01;;;;;;;1.15;0.30;;;27.20;71.60;;;;;;4998883;28;20113;-75
2021/05/13 00:50:31;;;;;;;3.20;0.38;;;27.80;68.50;;;;;;4990372;28;20058;-73
2021/05/13 00:53:01;;;;;;;1.08;0.50;;;27.60;69.30;;;;;;4990892;28;20038;-73
2021/05/13 00:55:28;;;;;;;0.95;0.20;;;27.70;67.20;;;;;;4987592;28;20030;-73
2021/05/13 00:57:56;;;;;;;1.67;0.50;;;28.20;68.50;;;;;;4992993;28;20030;-73
2021/05/13 01:00:41;;;;;;;0.82;0.43;;;28.60;66.80;;;;;;4985874;28;20766;-73
2021/05/13 01:03:09;;;;;;;2.55;0.60;;;28.20;67.30;;;;;;4983245;28;20065;-73
2021/05/13 01:05:37;;;;;;;1.85;0.52;;;28.20;63.90;;;;;;4990031;28;20141;-74
2021/05/13 01:08:06;;;;;;;1.40;0.50;;;28.40;64.20;;;;;;4985952;28;20023;-74
2021/05/13 01:10:35;;;;;;;0.77;0.35;;;27.70;64.90;;;;;;4987135;28;20040;-74
2021/05/13 01:13:09;;;;;;;1.00;0.30;;;28.10;68.50;;;;;;4991842;28;20069;-75
2021/05/13 01:15:42;;;;;;;1.48;0.73;;;28.20;64.10;;;;;;4989211;28;20029;-75
2021/05/13 01:18:17;;;;;;;1.20;0.35;;;28.70;65.80;;;;;;4989994;28;20811;-75
2021/05/13 01:20:46;;;;;;;0.90;0.45;;;29.00;67.00;;;;;;4993147;28;20042;-75
2021/05/13 01:23:14;;;;;;;0.80;0.38;;;29.20;62.70;;;;;;4990053;28;20053;-76
2021/05/13 01:25:50;;;;;;;1.00;0.55;;;29.80;64.20;;;;;;4990139;28;20076;-75
2021/05/13 01:28:19;;;;;;;0.68;0.43;;;29.40;62.30;;;;;;4983516;28;20034;-74
2021/05/13 01:30:50;;;;;;;2.58;0.60;;;29.00;62.90;;;;;;4984643;28;20493;-74
2021/05/13 01:33:20;;;;;;;0.85;0.50;;;28.50;63.70;;;;;;4984540;28;21716;-76
2021/05/13 01:35:48;;;;;;;2.58;0.30;;;28.00;65.10;;;;;;4986872;28;20061;-76
2021/05/13 01:38:17;;;;;;;1.30;0.40;;;28.50;61.80;;;;;;4991797;28;20042;-75
2021/05/13 01:40:52;;;;;;;0.50;0.32;;;28.90;61.40;;;;;;4993977;28;20022;-76
2021/05/13 01:43:19;;;;;;;0.90;0.20;;;29.10;58.60;;;;;;4991409;28;20038;-76
2021/05/13 01:45:47;;;;;;;1.00;0.50;;;28.50;58.10;;;;;;4985960;28;20337;-74
2021/05/13 01:48:15;;;;;;;1.35;0.55;;;27.70;62.40;;;;;;4993713;28;20034;-75
2021/05/13 01:50:43;;;;;;;1.30;0.50;;;28.20;63.10;;;;;;4971755;28;20501;-75
2021/05/13 01:53:10;;;;;;;0.52;0.40;;;28.90;60.70;;;;;;4989240;28;20061;-75
2021/05/13 01:55:38;;;;;;;12.30;2.80;;;28.70;60.60;;;;;;4983617;28;20026;-75
2021/05/13 01:58:05;;;;;;;1.48;0.35;;;29.10;63.50;;;;;;4986102;28;20034;-75
2021/05/13 02:00:34;;;;;;;4.63;0.70;;;29.60;60.80;;;;;;4986933;28;20049;-75
2021/05/13 02:03:02;;;;;;;0.98;0.30;;;30.00;59.90;;;;;;4992970;28;20038;-75
2021/05/13 02:05:30;;;;;;;0.80;0.47;;;29.90;59.90;;;;;;4990292;28;20839;-76
2021/05/13 02:07:57;;;;;;;2.58;0.47;;;29.00;60.30;;;;;;4990261;28;20416;-75
2021/05/13 02:10:25;;;;;;;0.88;0.35;;;29.10;62.40;;;;;;4986320;28;20413;-74
2021/05/13 02:12:56;;;;;;;7.10;0.85;;;28.90;59.60;;;;;;4992823;28;20085;-75
2021/05/13 02:15:24;;;;;;;14.05;3.33;;;28.70;62.20;;;;;;4995793;28;20026;-75
2021/05/13 02:17:51;;;;;;;2.58;0.60;;;29.00;62.10;;;;;;4993680;28;20038;-74
2021/05/13 02:20:22;;;;;;;0.82;0.43;;;29.00;57.90;;;;;;4985917;28;20082;-74
2021/05/13 02:22:49;;;;;;;6.55;0.93;;;29.00;62.10;;;;;;4986610;28;20060;-74
2021/05/13 02:25:17;;;;;;;5.00;0.68;;;29.30;62.30;;;;;;4989287;28;20189;-74
2021/05/13 02:27:44;;;;;;;6.65;1.15;;;29.80;59.80;;;;;;4988568;28;20034;-75
2021/05/13 02:30:14;;;;;;;5.68;0.50;;;29.90;60.40;;;;;;4991146;28;20032;-75
2021/05/13 02:32:41;;;;;;;1.90;0.50;;;30.10;60.40;;;;;;4987370;28;20140;-75
2021/05/13 02:35:11;;;;;;;2.80;0.50;;;30.00;60.50;;;;;;4984143;28;20034;-76
2021/05/13 02:37:38;;;;;;;0.77;0.30;;;29.60;60.80;;;;;;4987667;28;20665;-75
2021/05/13 02:40:07;;;;;;;0.68;0.35;;;29.50;62.10;;;;;;4990359;28;20052;-76
2021/05/13 02:42:35;;;;;;;1.45;0.75;;;29.30;57.50;;;;;;4991864;28;20034;-76
2021/05/13 02:45:03;;;;;;;1.30;0.55;;;28.30;61.90;;;;;;4986457;28;20109;-76
2021/05/13 02:47:31;;;;;;;1.17;0.30;;;28.10;61.70;;;;;;4989268;28;20050;-75
2021/05/13 02:49:58;;;;;;;2.42;0.40;;;27.70;61.30;;;;;;4994848;28;20042;-77
2021/05/13 02:52:26;;;;;;;3.58;0.57;;;28.30;65.30;;;;;;4989128;28;20026;-75
2021/05/13 02:54:53;;;;;;;1.98;0.43;;;28.30;58.00;;;;;;4991831;28;20104;-74
2021/05/13 02:57:21;;;;;;;4.35;0.30;;;28.40;60.20;;;;;;4991147;28;20981;-76
2021/05/13 02:59:52;;;;;;;3.38;0.60;;;28.40;60.80;;;;;;4990131;28;20435;-73
2021/05/13 03:02:20;;;;;;;1.05;0.22;;;28.80;61.60;;;;;;4992126;28;20034;-76
2021/05/13 03:04:47;;;;;;;0.55;0.30;;;28.50;57.20;;;;;;4991696;28;20022;-75
2021/05/13 03:07:15;;;;;;;0.93;0.57;;;28.50;57.70;;;;;;4994304;28;20034;-75
2021/05/13 03:09:46;;;;;;;0.73;0.38;;;28.20;61.50;;;;;;4989281;28;20092;-76
2021/05/13 03:12:13;;;;;;;0.50;0.20;;;28.10;59.10;;;;;;4990103;28;20029;-74
2021/05/13 03:14:41;;;;;;;2.55;0.60;;;28.10;60.00;;;;;;4985035;28;20248;-74
2021/05/13 03:17:08;;;;;;;0.90;0.40;;;28.30;60.10;;;;;;4984967;28;20038;-74
2021/05/13 03:19:45;;;;;;;0.70;0.50;;;28.50;62.40;;;;;;4991687;28;20553;-75
2021/05/13 03:22:16;;;;;;;2.28;0.75;;;28.50;60.40;;;;;;4992209;28;20042;-75
2021/05/13 03:24:53;;;;;;;1.90;0.43;;;28.70;59.00;;;;;;4988195;28;20057;-75
2021/05/13 03:29:56;;;;;;;1.48;0.40;;;28.00;59.30;;;;;;4991273;28;20014;-75
2021/05/13 03:32:24;;;;;;;1.20;0.40;;;28.00;62.60;;;;;;4990231;28;20080;-76
2021/05/13 03:34:52;;;;;;;0.60;0.40;;;27.90;61.50;;;;;;4993123;28;20026;-74
2021/05/13 03:37:25;;;;;;;1.77;0.40;;;27.70;62.30;;;;;;4994067;28;20104;-75
2021/05/13 03:39:52;;;;;;;0.82;0.60;;;27.60;64.00;;;;;;4993605;28;20037;-76
2021/05/13 03:42:20;;;;;;;30.63;1.67;;;27.10;66.50;;;;;;4997621;28;20029;-75
2021/05/13 03:44:48;;;;;;;13.73;1.17;;;26.50;61.70;;;;;;4995012;28;20038;-75
2021/05/13 03:47:15;;;;;;;5.32;0.45;;;26.30;63.90;;;;;;4996990;28;20528;-76
2021/05/13 03:49:43;;;;;;;5.68;0.52;;;25.90;64.10;;;;;;4993472;28;20051;-76
2021/05/13 03:52:10;;;;;;;0.77;0.45;;;25.50;65.00;;;;;;4992882;28;20075;-76
2021/05/13 03:54:38;;;;;;;2.17;0.40;;;24.90;64.60;;;;;;4992495;28;20053;-76
2021/05/13 03:57:06;;;;;;;5.30;0.50;;;24.90;67.00;;;;;;4993677;28;20117;-77
2021/05/13 03:59:38;;;;;;;0.47;0.35;;;24.80;71.30;;;;;;4997310;28;20400;-75
2021/05/13 04:02:27;;;;;;;0.57;0.30;;;24.90;69.50;;;;;;4993507;28;20092;-74
2021/05/13 04:04:55;;;;;;;129.45;15.30;;;24.90;71.50;;;;;;4990340;28;20053;-75
2021/05/13 04:07:22;;;;;;;2.85;0.45;;;24.80;68.80;;;;;;4991258;28;20041;-76
2021/05/13 04:09:50;;;;;;;2.03;0.50;;;24.80;68.10;;;;;;4988264;28;20037;-76
2021/05/13 04:12:17;;;;;;;0.77;0.32;;;24.40;70.00;;;;;;4996817;28;20018;-76
2021/05/13 04:14:44;;;;;;;0.65;0.30;;;24.20;69.50;;;;;;4992441;28;20057;-75
2021/05/13 04:17:12;;;;;;;1.83;0.30;;;24.00;69.60;;;;;;4994978;28;20513;-77
2021/05/13 04:19:39;;;;;;;1.13;0.40;;;23.90;71.00;;;;;;4994875;28;20872;-77
2021/05/13 04:22:07;;;;;;;0.50;0.30;;;23.80;71.60;;;;;;4993577;28;20484;-78
2021/05/13 04:24:35;;;;;;;1.00;0.70;;;23.80;72.50;;;;;;4994737;28;20049;-76
2021/05/13 04:27:02;;;;;;;2.17;0.52;;;23.80;71.00;;;;;;4997295;28;20507;-76
2021/05/13 04:29:30;;;;;;;1.27;0.43;;;23.70;71.50;;;;;;4989032;28;20057;-78
2021/05/13 04:31:57;;;;;;;0.60;0.40;;;23.70;72.50;;;;;;4993157;28;20049;-76
2021/05/13 04:34:24;;;;;;;1.15;0.40;;;23.50;72.10;;;;;;4991323;28;20532;-76
2021/05/13 04:36:52;;;;;;;0.93;0.50;;;23.50;72.60;;;;;;4991630;28;20026;-75
2021/05/13 04:39:19;;;;;;;1.75;0.40;;;23.30;72.10;;;;;;4994088;28;20658;-74
2021/05/13 04:41:47;;;;;;;1.65;0.60;;;23.30;73.20;;;;;;4995209;28;20058;-76
2021/05/13 04:44:14;;;;;;;2.75;0.93;;;23.20;73.00;;;;;;4992623;28;22599;-76
2021/05/13 04:46:41;;;;;;;1.52;0.40;;;23.30;74.00;;;;;;4988741;28;20546;-76
2021/05/13 04:51:38;;;;;;;1.80;0.60;;;23.30;74.90;;;;;;4991144;28;20026;-76
2021/05/13 04:54:05;;;;;;;1.60;0.50;;;23.20;72.90;;;;;;4994464;28;20033;-76
2021/05/13 04:56:33;;;;;;;1.65;0.60;;;22.90;74.10;;;;;;4991087;28;20022;-76
2021/05/13 04:59:01;;;;;;;1.73;0.70;;;22.80;74.50;;;;;;4991851;28;20026;-76
2021/05/13 05:01:29;;;;;;;0.93;0.60;;;22.70;75.30;;;;;;4993006;28;20122;-76
2021/05/13 05:03:56;;;;;;;0.50;0.50;;;22.70;74.70;;;;;;4999596;28;20033;-77
2021/05/13 05:06:24;;;;;;;1.35;0.40;;;22.70;75.00;;;;;;4991277;28;20018;-76
2021/05/13 05:08:51;;;;;;;1.65;0.52;;;22.70;74.60;;;;;;4989810;28;20036;-77
2021/05/13 05:11:20;;;;;;;1.00;0.90;;;22.80;75.10;;;;;;4989543;28;20024;-77
2021/05/13 05:13:48;;;;;;;2.05;0.75;;;22.80;75.00;;;;;;4990130;28;20034;-76
2021/05/13 05:16:16;;;;;;;2.88;0.55;;;22.90;75.70;;;;;;4988835;28;20444;-76
2021/05/13 05:18:44;;;;;;;1.60;0.60;;;22.90;75.40;;;;;;4988064;28;20045;-75
2021/05/13 05:21:12;;;;;;;1.38;0.75;;;23.10;75.90;;;;;;4985877;28;20129;-77
2021/05/13 05:23:39;;;;;;;0.50;0.40;;;23.20;76.50;;;;;;4992279;28;20062;-77
2021/05/13 05:26:07;;;;;;;2.78;1.38;;;23.30;75.90;;;;;;4983745;28;20677;-76
2021/05/13 05:28:35;;;;;;;7.75;1.42;;;23.30;74.40;;;;;;4990230;28;20049;-76
2021/05/13 05:31:03;;;;;;;2.75;0.60;;;23.20;75.60;;;;;;4989025;28;20022;-75
2021/05/13 05:33:30;;;;;;;1.38;1.27;;;23.20;75.20;;;;;;4985927;28;20053;-76
2021/05/13 05:35:58;;;;;;;717.50;112.15;;;23.20;74.50;;;;;;4995329;28;20110;-75
2021/05/13 05:38:28;;;;;;;3.25;1.25;;;23.20;75.00;;;;;;4986106;28;20026;-77
2021/05/13 05:40:56;;;;;;;2.00;0.75;;;23.30;75.60;;;;;;4987485;28;20026;-76
2021/05/13 05:43:23;;;;;;;3.45;0.82;;;23.30;73.70;;;;;;4995332;28;20606;-76
2021/05/13 05:45:52;;;;;;;5.10;0.90;;;23.40;74.60;;;;;;4997690;28;20026;-76
2021/05/13 05:48:19;;;;;;;1.60;0.60;;;23.40;73.90;;;;;;4993036;28;20014;-75
2021/05/13 05:50:47;;;;;;;3.30;0.80;;;23.40;73.20;;;;;;4991570;28;20420;-75
2021/05/13 05:53:14;;;;;;;1.50;0.60;;;23.60;74.10;;;;;;4999192;28;20066;-75
2021/05/13 05:55:42;;;;;;;11.45;1.35;;;23.80;74.50;;;;;;4995896;28;20038;-76
2021/05/13 05:58:09;;;;;;;1.17;0.50;;;23.90;76.10;;;;;;4993348;28;20027;-75
2021/05/13 06:00:37;;;;;;;1.17;0.90;;;23.90;70.40;;;;;;4994739;28;20077;-77
2021/05/13 06:03:04;;;;;;;2.83;1.00;;;23.90;70.90;;;;;;4989532;28;20088;-77
2021/05/13 06:05:32;;;;;;;1.02;0.88;;;24.00;68.20;;;;;;4989857;28;20050;-77
2021/05/13 06:07:59;;;;;;;0.95;0.80;;;23.80;65.80;;;;;;4993950;28;20026;-77
2021/05/13 06:10:27;;;;;;;1.00;0.90;;;23.80;63.60;;;;;;4992771;28;20105;-75
2021/05/13 06:12:54;;;;;;;1.42;0.88;;;23.80;63.70;;;;;;4962139;28;20101;-77
2021/05/13 06:15:25;;;;;;;2.17;0.85;;;23.90;62.40;;;;;;4985518;28;20540;-77
2021/05/13 06:17:53;;;;;;;6.25;2.13;;;23.80;63.00;;;;;;4986959;28;20030;-77
2021/05/13 06:20:23;;;;;;;1.83;1.48;;;23.80;62.90;;;;;;4988171;28;20535;-77
2021/05/13 06:22:51;;;;;;;2.65;0.80;;;23.70;61.00;;;;;;4988797;28;20044;-77
2021/05/13 06:25:19;;;;;;;4.53;0.80;;;23.50;61.60;;;;;;4987778;28;20028;-75
2021/05/13 06:27:47;;;;;;;1.55;0.82;;;23.50;64.40;;;;;;4992791;28;20125;-77
2021/05/13 06:30:15;;;;;;;3.80;1.13;;;23.40;63.80;;;;;;4988497;28;20691;-76
2021/05/13 06:32:44;;;;;;;1.85;0.82;;;23.20;63.70;;;;;;4988121;28;20116;-75
2021/05/13 06:35:13;;;;;;;0.75;0.70;;;22.90;63.50;;;;;;4983512;28;20030;-76
2021/05/13 06:37:40;;;;;;;1.10;0.90;;;22.80;64.50;;;;;;4989954;28;20037;-76
2021/05/13 06:40:09;;;;;;;1.50;0.82;;;22.70;67.80;;;;;;4988951;28;20037;-76
2021/05/13 06:42:37;;;;;;;1.33;0.70;;;22.60;70.70;;;;;;4987565;28;20563;-75
2021/05/13 06:45:05;;;;;;;1.27;0.60;;;22.50;71.60;;;;;;4992944;28;20037;-75
2021/05/13 06:47:33;;;;;;;1.10;0.68;;;22.40;70.90;;;;;;4990721;28;20031;-75
2021/05/13 06:50:01;;;;;;;1.55;0.80;;;22.30;72.00;;;;;;4989435;28;20420;-76
2021/05/13 06:52:29;;;;;;;3.60;0.70;;;22.20;72.90;;;;;;4987569;28;20034;-76
2021/05/13 06:54:56;;;;;;;3.75;0.65;;;22.20;73.20;;;;;;4990469;28;20030;-77
2021/05/13 06:57:24;;;;;;;0.82;0.82;;;22.10;73.70;;;;;;4986139;28;20396;-77
2021/05/13 06:59:51;;;;;;;1.92;1.27;;;22.00;73.70;;;;;;4988622;28;20030;-76
2021/05/13 07:02:20;;;;;;;2.95;0.82;;;21.90;74.80;;;;;;4985350;28;20042;-77
2021/05/13 07:04:47;;;;;;;1.95;0.70;;;21.80;76.30;;;;;;4991302;28;20030;-76
2021/05/13 07:07:15;;;;;;;1.48;1.00;;;21.70;75.10;;;;;;4997541;28;20464;-75
2021/05/13 07:09:44;;;;;;;1.20;0.80;;;21.60;74.70;;;;;;4992252;28;20033;-76
2021/05/13 07:12:11;;;;;;;4.22;1.00;;;21.50;76.20;;;;;;4994852;28;20033;-76
2021/05/13 07:14:39;;;;;;;1.58;0.90;;;21.40;75.40;;;;;;4996476;28;20022;-77
2021/05/13 07:17:07;;;;;;;2.78;0.88;;;21.20;75.30;;;;;;4990155;28;20065;-75
2021/05/13 07:19:34;;;;;;;3.08;1.42;;;21.20;74.60;;;;;;4997365;28;20023;-75
2021/05/13 07:22:02;;;;;;;2.97;0.93;;;21.00;74.00;;;;;;4999175;28;20042;-76
2021/05/13 07:24:29;;;;;;;4.10;1.00;;;20.90;72.50;;;;;;4992851;28;20125;-77
2021/05/13 07:26:56;;;;;;;3.28;1.52;;;20.80;70.90;;;;;;4989509;28;20034;-76
2021/05/13 07:29:24;;;;;;;2.88;0.82;;;20.80;70.70;;;;;;4992804;28;20041;-76
2021/05/13 07:31:51;;;;;;;11.98;0.98;;;20.70;70.20;;;;;;5003527;28;20439;-77
2021/05/13 07:34:18;;;;;;;1.45;0.77;;;20.60;70.20;;;;;;4993096;28;20515;-76
2021/05/13 07:36:46;;;;;;;2.25;0.55;;;20.60;69.10;;;;;;4994605;28;20034;-76
2021/05/13 07:39:15;;;;;;;0.93;0.60;;;20.50;69.10;;;;;;5005663;28;20030;-76
2021/05/13 07:41:42;;;;;;;1.98;0.60;;;20.30;69.70;;;;;;4998130;28;20042;-76
2021/05/13 07:44:10;;;;;;;1.48;0.60;;;20.30;69.20;;;;;;4990332;28;20109;-77
2021/05/13 07:46:39;;;;;;;4.97;0.70;;;20.10;70.60;;;;;;4999933;28;20485;-76
2021/05/13 07:49:08;;;;;;;0.77;0.47;;;20.00;70.30;;;;;;4989032;28;20078;-77
2021/05/13 07:51:36;;;;;;;1.85;0.70;;;19.90;70.50;;;;;;4998387;28;20035;-76
2021/05/13 07:54:04;;;;;;;1.35;0.88;;;19.80;70.80;;;;;;4996013;28;20176;-76
2021/05/13 07:56:31;;;;;;;2.75;0.88;;;19.70;70.80;;;;;;4996315;28;20583;-76
2021/05/13 07:58:59;;;;;;;1.05;0.65;;;19.60;70.70;;;;;;4999663;28;20045;-76
2021/05/13 08:01:26;;;;;;;1.33;0.73;;;19.50;72.60;;;;;;4996892;28;20030;-76
2021/05/13 08:03:54;;;;;;;1.30;0.98;;;19.50;72.00;;;;;;5000384;28;20054;-79
2021/05/13 08:06:21;;;;;;;0.70;0.60;;;19.40;73.00;;;;;;4997123;28;20326;-77
2021/05/13 08:08:48;;;;;;;0.93;0.57;;;19.40;73.90;;;;;;4995420;28;20380;-77
2021/05/13 08:11:16;;;;;;;2.30;0.60;;;19.30;75.30;;;;;;4999569;28;20030;-76
2021/05/13 08:13:43;;;;;;;0.93;0.70;;;19.30;73.50;;;;;;4997767;28;20053;-76
2021/05/13 08:16:11;;;;;;;1.40;1.02;;;19.20;73.90;;;;;;5002123;28;20673;-76
2021/05/13 08:18:38;;;;;;;0.75;0.70;;;19.20;73.30;;;;;;4992300;28;20034;-76
2021/05/13 08:21:05;;;;;;;0.65;0.55;;;19.20;74.30;;;;;;4996527;28;20505;-77
2021/05/13 08:23:33;;;;;;;1.27;0.80;;;19.10;74.70;;;;;;4994906;28;20034;-77
2021/05/13 08:26:01;;;;;;;1.65;1.40;;;19.10;76.10;;;;;;4991182;28;20040;-75
2021/05/13 08:28:28;;;;;;;0.80;0.65;;;19.10;76.60;;;;;;4995712;28;20030;-77
2021/05/13 08:30:56;;;;;;;1.52;0.80;;;18.90;80.50;;;;;;4999191;28;20060;-76
2021/05/13 08:33:23;;;;;;;1.40;0.80;;;18.80;80.00;;;;;;4995762;28;20030;-76
2021/05/13 08:35:51;;;;;;;1.52;1.00;;;18.70;80.60;;;;;;4995202;28;20043;-76
2021/05/13 08:38:18;;;;;;;2.75;0.80;;;18.60;78.90;;;;;;4997721;28;20063;-76
2021/05/13 08:40:46;;;;;;;1.17;0.88;;;18.50;77.50;;;;;;5001706;28;20519;-76
2021/05/13 08:43:24;;;;;;;0.82;0.63;;;18.40;77.20;;;;;;4997530;28;20125;-77
2021/05/13 08:45:52;;;;;;;2.97;1.08;;;18.40;77.40;;;;;;4995378;28;20041;-76
2021/05/13 08:48:28;;;;;;;3.60;0.85;;;18.40;74.60;;;;;;4997985;28;20049;-77
2021/05/13 08:50:57;;;;;;;0.52;0.50;;;18.40;74.90;;;;;;4996431;28;20117;-75
2021/05/13 08:53:24;;;;;;;4.32;0.60;;;18.30;74.90;;;;;;4987129;28;20125;-77
2021/05/13 08:55:52;;;;;;;1.73;0.90;;;18.30;75.00;;;;;;5000438;28;20445;-76
2021/05/13 08:58:19;;;;;;;1.25;0.63;;;18.30;75.60;;;;;;4996335;28;20038;-76
2021/05/13 09:00:54;;;;;;;0.82;0.75;;;18.30;76.60;;;;;;4999296;28;20056;-76
2021/05/13 09:03:38;;;;;;;1.00;0.77;;;18.20;73.70;;;;;;4996576;28;20493;-77
2021/05/13 09:06:07;;;;;;;1.38;0.80;;;18.20;74.20;;;;;;5000007;28;20045;-77
2021/05/13 09:08:35;;;;;;;1.45;0.70;;;18.20;75.00;;;;;;4996657;28;20027;-77
2021/05/13 09:11:18;;;;;;;1.00;0.90;;;18.10;75.80;;;;;;4999196;28;20014;-77
2021/05/13 09:13:59;;;;;;;5.07;1.17;;;18.00;77.50;;;;;;5007047;28;20481;-77
2021/05/13 09:16:35;;;;;;;2.83;1.75;;;17.90;75.70;;;;;;4988067;28;20049;-77
2021/05/13 09:19:26;;;;;;;2.10;1.30;;;17.80;75.60;;;;;;4990814;28;20034;-77
2021/05/13 09:21:59;;;;;;;2.42;1.17;;;17.80;75.80;;;;;;4991506;28;20132;-79
2021/05/13 09:24:45;;;;;;;3.65;0.90;;;17.70;77.90;;;;;;4994273;28;20108;-79
2021/05/13 09:27:17;;;;;;;2.20;0.98;;;17.70;76.60;;;;;;4992837;28;20097;-78
2021/05/13 09:29:47;;;;;;;2.58;1.15;;;17.80;76.70;;;;;;4996573;28;20037;-77
2021/05/13 09:32:20;;;;;;;1.17;0.98;;;17.70;78.30;;;;;;4997307;28;20029;-78
2021/05/13 09:34:48;;;;;;;2.67;1.00;;;17.80;75.60;;;;;;4996910;28;20030;-79
2021/05/13 09:37:15;;;;;;;1.75;0.90;;;17.80;74.60;;;;;;4996549;28;20547;-78
2021/05/13 09:39:50;;;;;;;1.60;1.10;;;17.80;75.50;;;;;;4993208;28;20086;-79
2021/05/13 09:42:19;;;;;;;0.80;0.70;;;17.80;75.90;;;;;;4991177;28;20050;-78
2021/05/13 09:44:49;;;;;;;0.70;0.65;;;17.70;77.30;;;;;;4999759;28;20037;-78
2021/05/13 09:47:27;;;;;;;2.55;1.45;;;17.70;76.90;;;;;;4995464;28;20031;-79
2021/05/13 09:50:03;;;;;;;1.48;0.95;;;17.60;78.00;;;;;;4993417;28;20567;-79
2021/05/13 09:53:00;;;;;;;2.15;0.60;;;17.60;80.40;;;;;;4993130;28;20057;-76
2021/05/13 09:55:36;;;;;;;2.70;1.10;;;17.50;81.70;;;;;;4991963;28;20033;-76
2021/05/13 09:58:07;;;;;;;1.67;0.85;;;17.50;80.50;;;;;;4995076;28;20026;-78
2021/05/13 10:00:47;;;;;;;2.13;0.90;;;17.50;78.60;;;;;;4987310;28;20118;-78
2021/05/13 10:03:21;;;;;;;2.03;0.70;;;17.50;77.00;;;;;;4989262;28;20492;-76
2021/05/13 10:05:54;;;;;;;2.03;0.98;;;17.50;75.80;;;;;;4995909;28;20034;-76
2021/05/13 10:08:21;;;;;;;1.23;0.73;;;17.50;75.60;;;;;;4990039;28;20499;-78
2021/05/13 10:10:50;;;;;;;1.05;0.80;;;17.60;74.80;;;;;;4992144;28;20036;-76
2021/05/13 10:13:19;;;;;;;2.03;1.05;;;17.60;74.50;;;;;;4989916;28;20033;-78
2021/05/13 10:15:48;;;;;;;1.98;0.80;;;17.70;73.60;;;;;;4993224;28;20122;-77
2021/05/13 10:18:40;;;;;;;2.65;1.02;;;17.80;73.60;;;;;;4998210;28;20057;-79
2021/05/13 10:21:29;;;;;;;1.00;0.80;;;17.80;73.70;;;;;;4993534;28;20033;-79
2021/05/13 10:23:58;;;;;;;1.10;0.90;;;17.80;73.50;;;;;;4991047;28;20030;-77
2021/05/13 10:26:39;;;;;;;0.90;0.65;;;17.80;73.30;;;;;;4992610;28;20018;-78
2021/05/13 10:29:22;;;;;;;0.82;0.57;;;17.80;73.30;;;;;;4996618;28;20046;-79
2021/05/13 10:32:02;;;;;;;1.70;0.70;;;17.80;73.60;;;;;;4993078;28;20409;-78
2021/05/13 10:34:48;;;;;;;0.80;0.60;;;17.80;74.30;;;;;;4988016;28;20023;-79
2021/05/13 10:37:37;;;;;;;1.30;0.88;;;17.80;73.70;;;;;;4993428;28;20022;-76
2021/05/13 10:40:15;;;;;;;2.30;0.93;;;17.70;75.30;;;;;;4994559;28;20104;-77
2021/05/13 10:42:48;;;;;;;1.45;1.02;;;17.60;75.00;;;;;;5001093;28;20492;-78
2021/05/13 10:45:30;;;;;;;1.98;0.85;;;17.50;75.90;;;;;;4996574;28;20040;-79
2021/05/13 10:48:15;;;;;;;1.52;0.95;;;17.50;75.20;;;;;;5001023;28;20112;-80
2021/05/13 10:50:47;;;;;;;1.70;0.80;;;17.50;75.30;;;;;;4997354;28;20072;-75
2021/05/13 10:56:23;;;;;;;2.80;1.08;;;17.50;77.10;;;;;;4992872;28;20084;-78
2021/05/13 10:59:11;;;;;;;2.05;0.73;;;17.40;78.70;;;;;;4995339;28;20042;-79
2021/05/13 11:01:44;;;;;;;1.35;0.68;;;17.40;78.70;;;;;;4995194;28;20038;-76
2021/05/13 11:04:24;;;;;;;1.90;0.88;;;17.30;79.50;;;;;;4987035;28;20110;-75
2021/05/13 11:07:05;;;;;;;1.92;1.45;;;17.20;81.30;;;;;;4991371;28;20025;-74
2021/05/13 11:09:42;;;;;;;1.95;1.33;;;17.10;83.40;;;;;;4992196;28;20025;-75
2021/05/13 11:12:20;;;;;;;1.52;0.70;;;17.00;83.40;;;;;;4991767;28;20042;-77
2021/05/13 11:17:45;;;;;;;1.40;0.90;;;17.00;79.00;;;;;;4993079;28;20161;-76
2021/05/13 11:20:32;;;;;;;1.08;0.50;;;17.00;77.50;;;;;;4994285;28;20034;-77
2021/05/13 11:23:07;;;;;;;3.83;1.20;;;17.00;77.60;;;;;;4997155;28;20061;-77
2021/05/13 11:26:15;;;;;;;2.13;0.60;;;17.00;77.30;;;;;;4997123;28;20082;-77
2021/05/13 11:28:46;;;;;;;0.93;0.60;;;17.00;78.50;;;;;;5007431;28;20037;-77
2021/05/13 11:31:34;;;;;;;1.70;0.85;;;16.90;78.40;;;;;;4998943;28;20029;-77
2021/05/13 11:34:04;;;;;;;1.00;0.50;;;16.80;77.90;;;;;;4992213;28;20030;-76
2021/05/13 11:36:44;;;;;;;0.40;0.40;;;16.70;77.70;;;;;;5001002;28;20848;-76
2021/05/13 11:39:15;;;;;;;2.03;1.00;;;16.70;78.30;;;;;;5012363;28;20030;-77
2021/05/13 11:41:49;;;;;;;1.13;0.68;;;16.60;81.00;;;;;;4996676;28;20040;-77
2021/05/13 11:44:21;;;;;;;0.65;0.60;;;16.50;80.20;;;;;;5000517;28;20090;-76
2021/05/13 11:46:52;;;;;;;2.10;0.45;;;16.60;78.40;;;;;;5001185;28;20117;-74
2021/05/13 11:49:20;;;;;;;0.98;0.73;;;16.60;78.00;;;;;;5000455;28;20392;-75
2021/05/13 11:51:47;;;;;;;2.50;0.65;;;16.60;77.90;;;;;;4999914;28;20120;-74
2021/05/13 11:54:15;;;;;;;1.13;0.70;;;16.70;77.50;;;;;;5002449;28;20104;-74
2021/05/13 11:56:45;;;;;;;1.13;0.60;;;16.70;77.40;;;;;;5003142;28;20113;-73
2021/05/13 11:59:14;;;;;;;0.47;0.47;;;16.60;77.80;;;;;;5001675;28;20109;-76
2021/05/13 12:01:46;;;;;;;0.80;0.57;;;16.70;77.30;;;;;;4996680;28;20061;-77
2021/05/13 12:04:17;;;;;;;0.55;0.35;;;16.70;77.30;;;;;;5003772;28;20093;-76
2021/05/13 12:06:46;;;;;;;3.28;0.85;;;16.60;77.50;;;;;;5000599;28;20109;-77
2021/05/13 12:09:18;;;;;;;1.92;0.60;;;16.60;77.60;;;;;;4996008;28;20034;-76
2021/05/13 12:11:45;;;;;;;2.42;0.60;;;16.50;77.60;;;;;;5002947;28;20493;-74
2021/05/13 12:14:18;;;;;;;0.52;0.50;;;16.50;77.90;;;;;;4996264;28;20022;-75
2021/05/13 12:16:52;;;;;;;0.75;0.70;;;16.50;78.50;;;;;;4996721;28;20030;-77
2021/05/13 12:19:20;;;;;;;0.50;0.45;;;16.40;78.50;;;;;;5000831;28;20034;-79
2021/05/13 12:21:54;;;;;;;1.48;0.50;;;16.40;78.10;;;;;;4997765;28;20113;-79
2021/05/13 12:24:31;;;;;;;1.88;0.63;;;16.40;78.30;;;;;;5004531;28;20018;-77
2021/05/13 12:26:59;;;;;;;1.13;0.70;;;16.40;78.50;;;;;;4992624;28;20049;-76
2021/05/13 12:29:28;;;;;;;0.65;0.50;;;16.30;78.50;;;;;;4998076;28;20538;-77
2021/05/13 12:31:55;;;;;;;0.63;0.50;;;16.30;78.80;;;;;;4999946;28;20041;-78
2021/05/13 12:34:55;;;;;;;2.72;0.70;;;16.20;78.70;;;;;;4999434;28;20029;-79
2021/05/13 12:37:23;;;;;;;1.38;0.88;;;16.30;78.70;;;;;;5004790;28;20046;-74
2021/05/13 12:39:53;;;;;;;1.52;0.47;;;16.20;78.80;;;;;;4997607;28;20027;-75
2021/05/13 12:42:31;;;;;;;0.68;0.38;;;16.20;79.20;;;;;;5000223;28;20042;-79
2021/05/13 12:45:17;;;;;;;0.90;0.60;;;16.10;80.40;;;;;;5005071;28;20109;-75
2021/05/13 12:47:44;;;;;;;;;;;16.00;81.60;;;;;;4991647;28;20026;-74
2021/05/13 12:50:13;;;;;;;0.63;0.60;;;15.80;82.10;;;;;;4996500;28;19925;-78
2021/05/13 12:52:40;;;;;;;0.80;0.70;;;15.70;82.00;;;;;;4993787;28;20121;-77
2021/05/13 12:55:15;;;;;;;1.73;0.60;;;15.70;82.90;;;;;;4996123;28;20015;-77
2021/05/13 12:57:47;;;;;;;8.40;1.37;;;15.60;82.70;;;;;;4989272;28;20485;-77
2021/05/13 13:00:16;;;;;;;1.25;0.70;;;15.70;81.80;;;;;;4999589;28;20084;-76
2021/05/13 13:02:44;;;;;;;2.60;0.57;;;15.70;81.60;;;;;;4999487;28;20037;-77
2021/05/13 13:05:22;;;;;;;1.05;0.52;;;15.70;81.50;;;;;;4997237;28;20041;-76
2021/05/13 13:07:51;;;;;;;0.90;0.50;;;15.70;82.20;;;;;;4987961;28;20462;-76
2021/05/13 13:10:26;;;;;;;5.10;0.60;;;15.60;82.60;;;;;;4998962;28;20069;-75
2021/05/13 13:13:14;;;;;;;3.55;0.60;;;15.50;83.10;;;;;;4994852;28;20029;-75